Time;durP1;ratioP1;P1;durP2;ratioP2;P2;SDS_P1;SDS_P2;PMS_P1;PMS_P2;Temp;Humidity;BMP_temperature;BMP_pressure;BME280_temperature;BME280_humidity;BME280_pressure;Samples;Min_cycle;Max_cycle;Signal;HPM_P1;HPM_P2
2023/01/05 00:01:33;;;;;;;;;;;11.10;99.90;;;;;;5071050;28;20007;-62
2023/01/05 00:04:01;;;;;;;;;;;11.20;99.90;;;;;;5071443;28;20530;-62
2023/01/05 00:06:29;;;;;;;;;;;11.10;99.90;;;;;;5070176;28;19925;-62
2023/01/05 00:08:58;;;;;;;;;;;11.20;99.90;;;;;;5067421;28;19931;-62
2023/01/05 00:22:32;;;;;;;;;;;11.10;99.90;;;;;;5067765;28;20039;-61
2023/01/05 00:25:01;;;;;;;;;;;11.00;99.90;;;;;;5071921;28;19960;-62
2023/01/05 00:27:58;;;;;;;;;;;11.10;99.90;;;;;;5066785;28;20014;-63
2023/01/05 00:30:27;;;;;;;;;;;11.00;99.90;;;;;;5068393;28;20404;-62
2023/01/05 00:32:56;;;;;;;;;;;11.00;99.90;;;;;;5073143;28;19938;-62
2023/01/05 00:35:23;;;;;;;;;;;11.00;99.90;;;;;;5070469;28;20603;-62
2023/01/05 00:37:51;;;;;;;;;;;10.90;99.90;;;;;;5065633;28;19924;-62
2023/01/05 00:40:20;;;;;;;;;;;10.90;99.90;;;;;;5067789;28;19916;-62
2023/01/05 00:42:48;;;;;;;;;;;10.80;99.90;;;;;;5069362;28;19935;-62
2023/01/05 00:45:17;;;;;;;;;;;10.90;99.90;;;;;;5071745;28;19966;-62
2023/01/05 00:47:45;;;;;;;;;;;10.90;99.90;;;;;;5069482;28;20003;-62
2023/01/05 00:50:15;;;;;;;;;;;11.00;99.90;;;;;;5067561;28;19924;-62
2023/01/05 00:52:43;;;;;;;;;;;10.90;99.90;;;;;;5068463;28;19980;-62
2023/01/05 00:55:11;;;;;;;;;;;10.90;99.90;;;;;;5073913;28;20362;-63
2023/01/05 00:57:39;;;;;;;;;;;11.00;99.90;;;;;;5065334;28;20341;-62
2023/01/05 01:00:08;;;;;;;;;;;11.00;99.90;;;;;;5068656;28;19962;-62
2023/01/05 01:02:36;;;;;;;;;;;10.90;99.90;;;;;;5068786;28;19916;-62
2023/01/05 01:05:05;;;;;;;;;;;11.00;99.90;;;;;;5067266;28;19923;-62
2023/01/05 01:07:34;;;;;;;;;;;11.00;99.90;;;;;;5072014;28;19928;-62
2023/01/05 01:10:01;;;;;;;;;;;11.00;99.90;;;;;;5067689;28;20002;-62
2023/01/05 01:12:29;;;;;;;;;;;11.10;99.90;;;;;;5073062;28;19923;-63
2023/01/05 01:14:57;;;;;;;;;;;11.20;99.90;;;;;;5076256;28;19930;-63
2023/01/05 01:17:24;;;;;;;;;;;11.20;99.90;;;;;;5071352;28;20381;-62
2023/01/05 01:19:52;;;;;;;;;;;11.30;99.90;;;;;;5070709;28;20292;-62
2023/01/05 01:22:20;;;;;;;;;;;11.30;99.90;;;;;;5070127;28;19928;-63
2023/01/05 01:24:49;;;;;;;;;;;11.30;99.90;;;;;;5072643;28;19916;-63
2023/01/05 01:27:16;;;;;;;;;;;11.40;99.90;;;;;;5069641;28;20383;-63
2023/01/05 01:29:44;;;;;;;;;;;11.40;99.90;;;;;;5068503;28;20284;-62
2023/01/05 01:32:12;;;;;;;;;;;11.40;99.90;;;;;;5074001;28;19916;-63
2023/01/05 01:34:39;;;;;;;;;;;11.40;99.90;;;;;;5076334;28;19916;-63
2023/01/05 01:37:07;;;;;;;;;;;11.40;99.90;;;;;;5072854;28;20423;-62
2023/01/05 01:39:35;;;;;;;;;;;11.40;99.90;;;;;;5072537;28;19927;-62
2023/01/05 01:42:04;;;;;;;;;;;11.40;99.90;;;;;;5071972;28;19939;-62
2023/01/05 01:44:54;;;;;;;;;;;11.40;99.90;;;;;;5074138;28;21146;-62
2023/01/05 01:47:25;;;;;;;;;;;11.40;99.90;;;;;;5073313;28;19931;-62
2023/01/05 01:49:54;;;;;;;;;;;11.40;99.90;;;;;;5071613;28;20284;-62
2023/01/05 01:52:23;;;;;;;;;;;11.40;99.90;;;;;;5070205;28;20015;-62
2023/01/05 01:54:51;;;;;;;;;;;11.40;99.90;;;;;;5073782;28;20119;-62
2023/01/05 01:57:20;;;;;;;;;;;11.40;99.90;;;;;;5074020;28;20019;-62
2023/01/05 01:59:48;;;;;;;;;;;11.50;99.90;;;;;;5072605;28;19958;-62
2023/01/05 02:02:16;;;;;;;;;;;11.50;99.90;;;;;;5071437;28;19924;-62
2023/01/05 02:04:44;;;;;;;;;;;11.50;99.90;;;;;;5075796;28;19924;-62
2023/01/05 02:07:14;;;;;;;;;;;11.40;99.90;;;;;;5070593;28;19924;-62
2023/01/05 02:09:42;;;;;;;;;;;11.50;99.90;;;;;;5072849;28;19922;-62
2023/01/05 02:12:16;;;;;;;;;;;11.40;99.90;;;;;;5070703;28;19922;-62
2023/01/05 02:14:53;;;;;;;;;;;11.50;99.90;;;;;;5065339;28;19923;-62
2023/01/05 02:17:27;;;;;;;;;;;11.50;99.90;;;;;;5068181;28;19916;-62
2023/01/05 02:20:09;;;;;;;;;;;11.50;99.90;;;;;;5070206;28;19920;-62
2023/01/05 02:22:47;;;;;;;;;;;11.40;99.90;;;;;;5069733;28;19926;-62
2023/01/05 02:25:25;;;;;;;;;;;11.40;99.90;;;;;;5065214;28;20293;-62
2023/01/05 02:27:58;;;;;;;;;;;11.40;99.90;;;;;;5072537;28;19916;-62
2023/01/05 02:30:45;;;;;;;;;;;11.40;99.90;;;;;;5071613;28;19922;-62
2023/01/05 02:33:21;;;;;;;;;;;11.40;99.90;;;;;;5076912;28;19917;-63
2023/01/05 02:35:51;;;;;;;;;;;11.40;99.90;;;;;;5073223;28;19928;-63
2023/01/05 02:38:22;;;;;;;;;;;11.40;99.90;;;;;;5069241;28;19923;-63
2023/01/05 02:40:53;;;;;;;;;;;11.40;99.90;;;;;;5067230;28;20024;-63
2023/01/05 02:43:21;;;;;;;;;;;11.40;99.90;;;;;;5070208;28;20277;-62
2023/01/05 02:45:50;;;;;;;;;;;11.40;99.90;;;;;;5072095;28;19923;-63
2023/01/05 02:48:18;;;;;;;;;;;11.40;99.90;;;;;;5066376;28;20368;-63
2023/01/05 02:50:49;;;;;;;;;;;11.30;99.90;;;;;;5066978;28;19917;-62
2023/01/05 02:53:19;;;;;;;;;;;11.30;99.90;;;;;;5070826;28;19920;-62
2023/01/05 02:55:50;;;;;;;;;;;11.30;99.90;;;;;;5070884;28;20408;-63
2023/01/05 02:58:19;;;;;;;;;;;11.20;99.90;;;;;;5075383;28;19920;-62
2023/01/05 03:00:49;;;;;;;;;;;11.30;99.90;;;;;;5072732;28;19927;-62
2023/01/05 03:03:20;;;;;;;;;;;11.20;99.90;;;;;;5072458;28;19964;-62
2023/01/05 03:05:50;;;;;;;;;;;11.20;99.90;;;;;;5059628;28;19920;-63
2023/01/05 03:08:21;;;;;;;;;;;11.20;99.90;;;;;;5072399;28;19916;-62
2023/01/05 03:13:48;;;;;;;;;;;11.30;99.90;;;;;;5075444;28;19915;-62
2023/01/05 03:16:19;;;;;;;;;;;11.30;99.90;;;;;;5069973;28;19950;-62
2023/01/05 03:35:32;;;;;;;;;;;11.10;99.90;;;;;;5077051;28;20428;-63
2023/01/05 03:38:03;;;;;;;;;;;11.10;99.90;;;;;;5068948;28;20386;-62
2023/01/05 03:40:32;;;;;;;;;;;11.10;99.90;;;;;;5069686;28;20275;-62
2023/01/05 03:43:02;;;;;;;;;;;11.10;99.90;;;;;;5063764;28;19923;-62
2023/01/05 03:45:32;;;;;;;;;;;11.10;99.90;;;;;;5071258;28;19916;-62
2023/01/05 03:48:00;;;;;;;;;;;11.10;99.90;;;;;;5070411;28;19916;-62
2023/01/05 03:50:29;;;;;;;;;;;11.10;99.90;;;;;;5065540;28;19975;-62
2023/01/05 03:52:57;;;;;;;;;;;11.10;99.90;;;;;;5068219;28;19920;-62
2023/01/05 03:55:25;;;;;;;;;;;11.10;99.90;;;;;;5072495;28;19921;-61
2023/01/05 03:57:52;;;;;;;;;;;11.10;99.90;;;;;;5066525;28;19960;-62
2023/01/05 04:00:20;;;;;;;;;;;11.10;99.90;;;;;;5069632;28;19924;-62
2023/01/05 04:02:48;;;;;;;;;;;11.10;99.90;;;;;;5068785;28;20309;-62
2023/01/05 04:05:16;;;;;;;;;;;11.10;99.90;;;;;;5068599;28;19916;-62
2023/01/05 04:07:45;;;;;;;;;;;11.10;99.90;;;;;;5068879;28;19915;-62
2023/01/05 04:10:13;;;;;;;;;;;11.00;99.90;;;;;;5067813;28;19931;-62
2023/01/05 04:12:41;;;;;;;;;;;11.00;99.90;;;;;;5068790;28;19942;-62
2023/01/05 04:15:09;;;;;;;;;;;11.00;99.90;;;;;;5072595;28;19928;-62
2023/01/05 04:17:37;;;;;;;;;;;11.00;99.90;;;;;;5069876;28;19922;-62
2023/01/05 04:20:05;;;;;;;;;;;11.10;99.90;;;;;;5070576;28;19930;-62
2023/01/05 04:22:32;;;;;;;;;;;11.10;99.90;;;;;;5070107;28;19963;-62
2023/01/05 04:25:02;;;;;;;;;;;11.00;99.90;;;;;;5073244;28;19923;-62
2023/01/05 04:27:29;;;;;;;;;;;11.00;99.90;;;;;;5068663;28;19916;-63
2023/01/05 04:29:57;;;;;;;;;;;10.90;99.90;;;;;;5072498;28;19920;-62
2023/01/05 04:32:25;;;;;;;;;;;11.00;99.90;;;;;;5071904;28;20019;-63
2023/01/05 04:34:52;;;;;;;;;;;10.90;99.90;;;;;;5065718;28;20019;-62
2023/01/05 04:37:20;;;;;;;;;;;10.90;99.90;;;;;;5064847;28;20416;-62
2023/01/05 04:39:48;;;;;;;;;;;10.90;99.90;;;;;;5068267;28;20289;-62
2023/01/05 04:42:17;;;;;;;;;;;10.90;99.90;;;;;;5070536;28;20343;-62
2023/01/05 04:44:45;;;;;;;;;;;10.90;99.90;;;;;;5072581;28;19923;-62
2023/01/05 04:47:13;;;;;;;;;;;11.00;99.90;;;;;;5075570;28;19917;-62
2023/01/05 04:49:40;;;;;;;;;;;10.90;99.90;;;;;;5073942;28;20014;-62
2023/01/05 04:52:09;;;;;;;;;;;10.90;99.90;;;;;;5073525;28;19916;-62
2023/01/05 04:54:37;;;;;;;;;;;10.90;99.90;;;;;;5074740;28;19917;-62
2023/01/05 04:57:04;;;;;;;;;;;10.90;99.90;;;;;;5074271;28;19920;-61
2023/01/05 04:59:33;;;;;;;;;;;10.90;99.90;;;;;;5073086;28;19924;-62
2023/01/05 05:02:01;;;;;;;;;;;10.80;99.90;;;;;;5078447;28;20432;-62
2023/01/05 05:04:29;;;;;;;;;;;10.80;99.90;;;;;;5077095;28;19917;-62
2023/01/05 05:06:57;;;;;;;;;;;10.80;99.90;;;;;;5073660;28;19971;-62
2023/01/05 05:09:24;;;;;;;;;;;10.80;99.90;;;;;;5073005;28;19967;-62
2023/01/05 05:11:52;;;;;;;;;;;10.70;99.90;;;;;;5072368;28;19947;-62
2023/01/05 05:14:20;;;;;;;;;;;10.70;99.90;;;;;;5070675;28;19931;-62
2023/01/05 05:16:49;;;;;;;;;;;10.70;99.90;;;;;;5073734;28;19916;-62
2023/01/05 05:19:16;;;;;;;;;;;10.80;99.90;;;;;;5074746;28;20389;-62
2023/01/05 05:21:44;;;;;;;;;;;10.70;99.90;;;;;;5076315;28;20421;-62
2023/01/05 05:24:12;;;;;;;;;;;10.80;99.90;;;;;;5076278;28;20368;-62
2023/01/05 05:26:39;;;;;;;;;;;10.70;99.90;;;;;;5073886;28;19923;-62
2023/01/05 05:29:07;;;;;;;;;;;10.70;99.90;;;;;;5078423;28;20413;-62
2023/01/05 05:31:35;;;;;;;;;;;10.70;99.90;;;;;;5071155;28;20373;-62
2023/01/05 05:34:04;;;;;;;;;;;10.70;99.90;;;;;;5074084;28;19916;-62
2023/01/05 05:36:32;;;;;;;;;;;10.60;99.90;;;;;;5073494;28;19922;-62
2023/01/05 05:39:00;;;;;;;;;;;10.70;99.90;;;;;;5071977;28;19917;-64
2023/01/05 05:41:28;;;;;;;;;;;10.60;99.90;;;;;;5093518;22;19962;-66
2023/01/05 05:43:59;;;;;;;;;;;10.60;99.90;;;;;;5082298;28;19920;-67
2023/01/05 05:46:27;;;;;;;;;;;10.50;99.90;;;;;;5078634;28;19917;-67
2023/01/05 05:48:55;;;;;;;;;;;10.50;99.90;;;;;;5076602;28;19923;-66
2023/01/05 05:51:24;;;;;;;;;;;10.40;99.90;;;;;;5073267;28;19938;-67
2023/01/05 05:53:52;;;;;;;;;;;10.40;99.90;;;;;;5079052;28;19928;-67
2023/01/05 05:56:20;;;;;;;;;;;10.40;99.90;;;;;;5074020;28;19950;-67
2023/01/05 05:58:48;;;;;;;;;;;10.40;99.90;;;;;;5073627;28;19955;-66
2023/01/05 06:01:15;;;;;;;;;;;10.40;99.90;;;;;;5082738;28;20270;-66
2023/01/05 06:03:43;;;;;;;;;;;10.40;99.90;;;;;;5079531;28;19970;-66
2023/01/05 06:06:11;;;;;;;;;;;10.40;99.90;;;;;;5077156;28;19961;-67
2023/01/05 06:08:40;;;;;;;;;;;10.40;99.90;;;;;;5069156;28;19916;-67
2023/01/05 06:11:08;;;;;;;;;;;10.40;99.90;;;;;;5051063;28;19920;-67
2023/01/05 06:13:35;;;;;;;;;;;10.40;99.90;;;;;;5070419;28;19916;-67
2023/01/05 06:16:03;;;;;;;;;;;10.40;99.90;;;;;;5071782;28;19927;-67
2023/01/05 06:18:31;;;;;;;;;;;10.30;99.90;;;;;;5077583;28;20011;-67
2023/01/05 06:20:59;;;;;;;;;;;10.40;99.90;;;;;;5072035;28;20013;-67
2023/01/05 06:23:28;;;;;;;;;;;10.40;99.90;;;;;;5072755;28;19916;-67
2023/01/05 06:25:57;;;;;;;;;;;10.30;99.90;;;;;;5073798;28;20365;-67
2023/01/05 06:28:25;;;;;;;;;;;10.30;99.90;;;;;;5076372;28;20372;-66
2023/01/05 06:30:53;;;;;;;;;;;10.30;99.90;;;;;;5082767;28;19922;-66
2023/01/05 06:33:20;;;;;;;;;;;10.30;99.90;;;;;;5089161;28;19923;-66
2023/01/05 06:35:48;;;;;;;;;;;10.30;99.90;;;;;;5072038;28;20003;-66
2023/01/05 06:38:16;;;;;;;;;;;10.30;99.90;;;;;;5072912;28;20472;-66
2023/01/05 06:40:46;;;;;;;;;;;10.30;99.90;;;;;;5071895;28;19922;-66
2023/01/05 06:43:15;;;;;;;;;;;10.30;99.90;;;;;;5072707;28;20003;-66
2023/01/05 06:45:43;;;;;;;;;;;10.30;99.90;;;;;;5071895;28;20015;-66
2023/01/05 06:48:11;;;;;;;;;;;10.30;99.90;;;;;;5072569;28;20309;-67
2023/01/05 06:50:39;;;;;;;;;;;10.30;99.90;;;;;;5071915;28;19916;-67
2023/01/05 06:53:07;;;;;;;;;;;10.20;99.90;;;;;;5073975;28;19955;-66
2023/01/05 06:55:34;;;;;;;;;;;10.20;99.90;;;;;;5073227;28;19981;-66
2023/01/05 06:58:02;;;;;;;;;;;10.20;99.90;;;;;;5072755;28;19920;-67
2023/01/05 07:00:31;;;;;;;;;;;10.20;99.90;;;;;;5071838;28;19936;-67
2023/01/05 07:02:59;;;;;;;;;;;10.20;99.90;;;;;;5063074;28;19998;-66
2023/01/05 07:05:27;;;;;;;;;;;10.20;99.90;;;;;;5053151;28;19952;-66
2023/01/05 07:07:54;;;;;;;;;;;10.20;99.90;;;;;;5071497;28;19922;-67
2023/01/05 07:10:22;;;;;;;;;;;10.20;99.90;;;;;;5071443;28;19923;-66
2023/01/05 07:12:50;;;;;;;;;;;10.10;99.90;;;;;;5070402;28;20445;-66
2023/01/05 07:15:17;;;;;;;;;;;10.10;99.90;;;;;;5072307;28;20291;-66
2023/01/05 07:17:46;;;;;;;;;;;10.10;99.90;;;;;;5072147;28;20360;-66
2023/01/05 07:20:14;;;;;;;;;;;10.10;99.90;;;;;;5059967;28;20273;-66
2023/01/05 07:22:42;;;;;;;;;;;10.10;99.90;;;;;;5053216;28;19927;-66
2023/01/05 07:25:10;;;;;;;;;;;10.10;99.90;;;;;;5072198;28;19924;-66
2023/01/05 07:27:38;;;;;;;;;;;10.10;99.90;;;;;;5059878;28;19936;-67
2023/01/05 07:30:06;;;;;;;;;;;10.00;99.90;;;;;;5066263;28;19959;-67
2023/01/05 07:32:34;;;;;;;;;;;10.00;99.90;;;;;;5071273;28;19926;-67
2023/01/05 07:35:03;;;;;;;;;;;10.00;99.90;;;;;;5071494;28;20010;-66
2023/01/05 07:37:30;;;;;;;;;;;10.00;99.90;;;;;;5071782;28;19916;-66
2023/01/05 07:39:58;;;;;;;;;;;10.00;99.90;;;;;;5070934;28;20011;-67
2023/01/05 07:42:26;;;;;;;;;;;10.00;99.90;;;;;;5072120;28;19955;-66
2023/01/05 07:44:54;;;;;;;;;;;10.00;99.90;;;;;;5071942;28;19920;-67
2023/01/05 07:47:21;;;;;;;;;;;10.00;99.90;;;;;;5072993;28;19930;-66
2023/01/05 07:49:49;;;;;;;;;;;10.00;99.90;;;;;;5065951;28;20396;-67
2023/01/05 07:52:18;;;;;;;;;;;10.00;99.90;;;;;;5051742;28;20019;-67
2023/01/05 07:54:46;;;;;;;;;;;10.00;99.90;;;;;;5051807;28;20007;-66
2023/01/05 07:57:14;;;;;;;;;;;10.00;99.90;;;;;;5051698;28;20027;-67
2023/01/05 07:59:41;;;;;;;;;;;9.90;99.90;;;;;;5050963;28;19921;-67
2023/01/05 08:02:09;;;;;;;;;;;9.90;99.90;;;;;;5059013;28;19938;-67
2023/01/05 08:04:37;;;;;;;;;;;9.90;99.90;;;;;;5071842;28;19917;-66
2023/01/05 08:07:08;;;;;;;;;;;9.90;99.90;;;;;;5071401;28;19916;-67
2023/01/05 08:12:23;;;;;;;;;;;9.90;99.90;;;;;;5071612;28;20480;-67
2023/01/05 08:14:51;;;;;;;;;;;9.90;99.90;;;;;;5071705;28;19916;-67
2023/01/05 08:17:18;;;;;;;;;;;10.00;99.90;;;;;;5070931;28;20411;-67
2023/01/05 08:19:46;;;;;;;;;;;10.00;99.90;;;;;;5074755;28;19962;-67
2023/01/05 08:22:14;;;;;;;;;;;10.00;99.90;;;;;;5075403;28;20007;-67
2023/01/05 08:24:43;;;;;;;;;;;10.00;99.90;;;;;;5075872;28;19916;-67
2023/01/05 08:27:11;;;;;;;;;;;10.10;99.90;;;;;;5075759;28;20010;-67
2023/01/05 08:29:38;;;;;;;;;;;10.10;99.90;;;;;;5074659;28;19916;-67
2023/01/05 08:32:07;;;;;;;;;;;10.10;99.90;;;;;;5075363;28;19920;-67
2023/01/05 08:34:35;;;;;;;;;;;10.10;99.90;;;;;;5075347;28;19923;-66
2023/01/05 08:37:03;;;;;;;;;;;10.00;99.90;;;;;;5070305;28;20015;-67
2023/01/05 08:39:30;;;;;;;;;;;9.90;99.90;;;;;;5071285;28;20027;-68
2023/01/05 08:41:59;;;;;;;;;;;9.90;99.90;;;;;;5072154;28;20003;-66
2023/01/05 08:44:29;;;;;;;;;;;9.90;99.90;;;;;;5072878;28;19924;-66
2023/01/05 08:46:57;;;;;;;;;;;9.80;99.90;;;;;;5073984;28;19959;-66
2023/01/05 08:49:25;;;;;;;;;;;9.80;99.90;;;;;;5074054;28;19924;-66
2023/01/05 08:51:53;;;;;;;;;;;9.90;99.90;;;;;;5074012;28;20288;-66
2023/01/05 08:54:20;;;;;;;;;;;9.80;99.90;;;;;;5073945;28;19927;-66
2023/01/05 08:56:49;;;;;;;;;;;9.90;99.90;;;;;;5074200;28;19986;-66
2023/01/05 08:59:18;;;;;;;;;;;9.90;99.90;;;;;;5073751;28;19940;-67
2023/01/05 09:01:46;;;;;;;;;;;10.00;99.90;;;;;;5073622;28;19924;-67
2023/01/05 09:04:14;;;;;;;;;;;10.20;99.90;;;;;;5074627;28;19961;-67
2023/01/05 09:06:42;;;;;;;;;;;10.30;99.90;;;;;;5071795;28;20003;-66
2023/01/05 09:09:10;;;;;;;;;;;10.30;99.90;;;;;;5065486;28;19922;-66
2023/01/05 09:11:38;;;;;;;;;;;10.20;99.90;;;;;;5060968;28;19952;-67
2023/01/05 09:14:05;;;;;;;;;;;10.20;99.90;;;;;;5070436;28;19924;-67
2023/01/05 09:16:34;;;;;;;;;;;10.20;99.90;;;;;;5074288;28;20376;-67
2023/01/05 09:19:22;;;;;;;;;;;10.30;99.90;;;;;;5082290;28;19922;-67
2023/01/05 09:21:51;;;;;;;;;;;10.30;99.90;;;;;;5086971;28;19916;-67
2023/01/05 09:24:22;;;;;;;;;;;10.40;99.90;;;;;;5058621;28;20442;-67
2023/01/05 09:26:50;;;;;;;;;;;10.40;99.90;;;;;;5068438;28;19948;-67
2023/01/05 09:29:18;;;;;;;;;;;10.50;99.90;;;;;;5063069;28;19939;-66
2023/01/05 09:31:47;;;;;;;;;;;10.50;99.90;;;;;;5072977;28;19923;-66
2023/01/05 09:34:15;;;;;;;;;;;10.50;99.90;;;;;;5057444;28;19921;-66
2023/01/05 09:36:43;;;;;;;;;;;10.60;99.90;;;;;;5072326;28;20352;-67
2023/01/05 09:39:11;;;;;;;;;;;10.70;99.90;;;;;;5072755;28;20558;-67
2023/01/05 09:41:40;;;;;;;;;;;10.80;99.90;;;;;;5073091;28;19922;-67
2023/01/05 09:44:13;;;;;;;;;;;10.80;99.90;;;;;;5074109;28;20342;-67
2023/01/05 09:46:42;;;;;;;;;;;10.80;99.90;;;;;;5074363;28;20001;-67
2023/01/05 09:49:13;;;;;;;;;;;10.80;99.90;;;;;;5074278;28;20377;-67
2023/01/05 09:51:41;;;;;;;;;;;10.80;99.90;;;;;;5069553;28;19964;-67
2023/01/05 09:54:14;;;;;;;;;;;10.80;99.90;;;;;;5053813;28;20011;-66
2023/01/05 09:56:43;;;;;;;;;;;10.90;99.90;;;;;;5054170;28;20651;-67
2023/01/05 09:59:32;;;;;;;;;;;11.20;99.90;;;;;;5054356;28;20424;-67
2023/01/05 10:02:00;;;;;;;;;;;11.40;99.90;;;;;;5053623;28;19967;-67
2023/01/05 10:04:31;;;;;;;;;;;11.40;99.90;;;;;;5053629;28;19927;-67
2023/01/05 10:07:01;;;;;;;;;;;11.40;99.90;;;;;;5066858;28;19916;-67
2023/01/05 10:09:30;;;;;;;;;;;11.40;99.90;;;;;;5073448;28;19927;-67
2023/01/05 10:14:46;;;;;;;;;;;11.40;99.90;;;;;;5073576;28;20006;-67
2023/01/05 10:17:15;;;;;;;;;;;11.40;99.90;;;;;;5073593;28;19962;-67
2023/01/05 10:20:06;;;;;;;;;;;11.30;99.90;;;;;;5072661;28;19943;-66
2023/01/05 10:22:39;;;;;;;;;;;11.30;99.90;;;;;;5073331;28;19920;-67
2023/01/05 10:25:12;;;;;;;;;;;11.30;99.90;;;;;;5069855;28;19917;-67
2023/01/05 10:27:44;;;;;;;;;;;11.20;99.90;;;;;;5053460;28;19921;-67
2023/01/05 10:30:14;;;;;;;;;;;11.10;99.90;;;;;;5052812;28;19916;-67
2023/01/05 10:32:47;;;;;;;;;;;11.10;99.90;;;;;;5053324;28;20023;-66
2023/01/05 10:35:26;;;;;;;;;;;11.10;99.90;;;;;;5053184;28;19966;-66
2023/01/05 10:38:18;;;;;;;;;;;11.00;99.90;;;;;;5067391;28;20293;-67
2023/01/05 10:40:51;;;;;;;;;;;11.00;99.90;;;;;;5063558;28;19938;-67
2023/01/05 10:43:24;;;;;;;;;;;11.00;99.90;;;;;;5072508;28;19916;-66
2023/01/05 10:45:52;;;;;;;;;;;11.00;99.90;;;;;;5073112;28;19917;-67
2023/01/05 10:48:40;;;;;;;;;;;11.00;99.90;;;;;;5072974;28;19917;-67
2023/01/05 10:51:09;;;;;;;;;;;11.00;99.90;;;;;;5071922;28;20369;-67
2023/01/05 10:53:38;;;;;;;;;;;11.00;99.90;;;;;;5072598;28;19916;-67
2023/01/05 10:56:11;;;;;;;;;;;11.00;99.90;;;;;;5056739;28;20023;-67
2023/01/05 10:58:39;;;;;;;;;;;11.00;99.90;;;;;;5052870;28;19916;-66
2023/01/05 11:01:16;;;;;;;;;;;11.10;99.90;;;;;;5051581;28;19916;-67
2023/01/05 11:03:45;;;;;;;;;;;11.00;99.90;;;;;;5052794;28;19967;-67
2023/01/05 11:06:35;;;;;;;;;;;11.10;99.90;;;;;;5062090;28;20389;-67
2023/01/05 11:09:11;;;;;;;;;;;11.10;99.90;;;;;;5071761;28;19962;-67
2023/01/05 11:11:53;;;;;;;;;;;11.10;99.90;;;;;;5071510;28;20533;-66
2023/01/05 11:14:20;;;;;;;;;;;11.20;99.90;;;;;;5072570;28;20019;-66
2023/01/05 11:16:50;;;;;;;;;;;11.30;99.90;;;;;;5072412;28;19970;-66
2023/01/05 11:19:19;;;;;;;;;;;11.30;99.90;;;;;;5073756;28;19922;-67
2023/01/05 11:21:48;;;;;;;;;;;11.30;99.90;;;;;;5071279;28;20007;-66
2023/01/05 11:24:29;;;;;;;;;;;11.40;99.90;;;;;;5067308;28;19962;-67
2023/01/05 11:26:58;;;;;;;;;;;11.40;99.90;;;;;;5052387;28;20028;-67
2023/01/05 11:29:26;;;;;;;;;;;11.40;99.90;;;;;;5052114;28;20024;-66
2023/01/05 11:31:54;;;;;;;;;;;11.30;99.90;;;;;;5051362;28;19923;-67
2023/01/05 11:34:27;;;;;;;;;;;11.40;99.90;;;;;;5051973;28;19917;-66
2023/01/05 11:36:57;;;;;;;;;;;11.40;99.90;;;;;;5064426;28;20011;-66
2023/01/05 11:39:35;;;;;;;;;;;11.40;99.90;;;;;;5071007;28;19923;-67
2023/01/05 11:42:11;;;;;;;;;;;11.50;99.90;;;;;;5108857;22;20451;-62
2023/01/05 11:44:39;;;;;;;;;;;11.60;99.90;;;;;;5100439;28;20011;-63
2023/01/05 11:47:07;;;;;;;;;;;11.70;99.90;;;;;;5092116;28;20279;-63
2023/01/05 11:49:35;;;;;;;;;;;11.70;99.90;;;;;;5091555;28;19923;-61
2023/01/05 11:52:23;;;;;;;;;;;11.80;99.90;;;;;;5091426;28;19916;-63
2023/01/05 11:54:51;;;;;;;;;;;11.80;99.90;;;;;;5091666;28;19930;-62
2023/01/05 11:57:21;;;;;;;;;;;11.90;99.90;;;;;;5091912;28;20387;-63
2023/01/05 11:59:50;;;;;;;;;;;11.90;99.90;;;;;;5091194;28;20015;-62
2023/01/05 12:02:33;;;;;;;;;;;12.00;99.90;;;;;;5091643;28;19927;-63
2023/01/05 12:05:08;;;;;;;;;;;12.10;99.90;;;;;;5081866;28;21213;-63
2023/01/05 12:07:41;;;;;;;;;;;12.20;99.90;;;;;;5095912;28;19924;-63
2023/01/05 12:10:21;;;;;;;;;;;12.60;99.90;;;;;;5107135;28;20316;-62
2023/01/05 12:12:55;;;;;;;;;;;13.30;99.90;;;;;;5111848;28;19920;-63
2023/01/05 12:15:38;;;;;;;;;;;13.50;99.90;;;;;;5112079;28;19972;-63
2023/01/05 12:18:15;;;;;;;;;;;13.40;99.90;;;;;;5112205;28;19949;-63
2023/01/05 12:20:48;;;;;;;;;;;13.40;99.90;;;;;;5092342;28;19920;-61
2023/01/05 12:23:26;;;;;;;;;;;13.10;99.90;;;;;;5091487;28;19920;-63
2023/01/05 12:25:58;;;;;;;;;;;13.00;99.90;;;;;;5091591;28;19942;-63
2023/01/05 12:28:42;;;;;;;;;;;12.80;99.90;;;;;;5091630;28;20019;-63
2023/01/05 12:31:26;;;;;;;;;;;12.70;99.90;;;;;;5090980;28;19926;-63
2023/01/05 12:34:28;;;;;;;;;;;12.70;99.90;;;;;;5084924;28;19927;-63
2023/01/05 12:37:08;;;;;;;;;;;12.70;99.90;;;;;;5090207;28;19926;-63
2023/01/05 12:39:47;;;;;;;;;;;12.70;99.90;;;;;;5102648;28;19972;-62
2023/01/05 12:42:29;;;;;;;;;;;12.70;99.90;;;;;;5111448;28;19919;-63
2023/01/05 12:45:07;;;;;;;;;;;12.60;99.90;;;;;;5099059;28;20030;-63
2023/01/05 12:47:51;;;;;;;;;;;12.60;99.90;;;;;;5111968;28;20018;-63
2023/01/05 12:50:22;;;;;;;;;;;12.60;99.90;;;;;;5092063;28;19973;-62
2023/01/05 12:52:51;;;;;;;;;;;12.60;99.90;;;;;;5091222;28;19926;-63
2023/01/05 12:55:23;;;;;;;;;;;12.60;99.90;;;;;;5091123;28;20446;-63
2023/01/05 12:57:53;;;;;;;;;;;12.60;99.90;;;;;;5091391;28;20007;-63
2023/01/05 13:00:21;;;;;;;;;;;12.60;99.90;;;;;;5090528;28;19934;-63
2023/01/05 13:02:52;;;;;;;;;;;12.60;99.90;;;;;;5091162;28;19959;-63
2023/01/05 13:05:22;;;;;;;;;;;12.60;99.90;;;;;;5074533;28;19921;-63
2023/01/05 13:07:53;;;;;;;;;;;12.60;99.90;;;;;;5095753;28;20376;-63
2023/01/05 13:10:25;;;;;;;;;;;12.60;99.90;;;;;;5112157;28;19965;-63
2023/01/05 13:12:55;;;;;;;;;;;12.60;99.90;;;;;;5115385;28;20037;-63
2023/01/05 13:15:24;;;;;;;;;;;12.70;99.90;;;;;;5115234;28;20014;-63
2023/01/05 13:17:53;;;;;;;;;;;12.70;99.90;;;;;;5115469;28;19920;-63
2023/01/05 13:20:27;;;;;;;;;;;12.70;99.90;;;;;;5114418;28;20438;-63
2023/01/05 13:22:56;;;;;;;;;;;12.70;99.90;;;;;;5101527;28;20024;-63
2023/01/05 13:25:27;;;;;;;;;;;12.70;99.90;;;;;;5084902;28;19924;-63
2023/01/05 13:27:55;;;;;;;;;;;12.60;99.90;;;;;;5094802;28;20031;-62
2023/01/05 13:30:25;;;;;;;;;;;12.50;99.90;;;;;;5093745;28;20296;-63
2023/01/05 13:32:58;;;;;;;;;;;12.40;99.90;;;;;;5094539;28;19924;-63
2023/01/05 13:35:44;;;;;;;;;;;12.30;99.90;;;;;;5094443;28;20019;-63
2023/01/05 13:38:35;;;;;;;;;;;12.40;99.90;;;;;;5104649;28;19919;-63
2023/01/05 13:41:17;;;;;;;;;;;12.40;99.90;;;;;;5073032;28;20008;-63
2023/01/05 13:43:52;;;;;;;;;;;12.50;99.90;;;;;;5074034;28;20007;-62
2023/01/05 13:46:34;;;;;;;;;;;12.50;99.90;;;;;;5074132;28;19951;-62
2023/01/05 13:49:15;;;;;;;;;;;12.40;99.90;;;;;;5061488;28;19920;-62
2023/01/05 13:51:53;;;;;;;;;;;12.40;99.90;;;;;;5073156;28;20003;-62
2023/01/05 13:54:27;;;;;;;;;;;12.40;99.90;;;;;;5073825;28;19920;-63
2023/01/05 13:57:14;;;;;;;;;;;12.40;99.90;;;;;;5073928;28;20307;-64
2023/01/05 13:59:42;;;;;;;;;;;12.30;99.90;;;;;;5073264;28;20345;-62
2023/01/05 14:02:29;;;;;;;;;;;12.30;99.90;;;;;;5073925;28;19927;-63
2023/01/05 14:04:57;;;;;;;;;;;12.30;99.90;;;;;;5073872;28;20035;-63
2023/01/05 14:07:26;;;;;;;;;;;12.30;99.90;;;;;;5093472;28;19960;-63
2023/01/05 14:09:55;;;;;;;;;;;12.30;99.90;;;;;;5099295;28;19954;-63
2023/01/05 14:12:25;;;;;;;;;;;12.20;99.90;;;;;;5093520;28;19926;-62
2023/01/05 14:15:01;;;;;;;;;;;12.20;99.90;;;;;;5093653;28;19920;-63
2023/01/05 14:17:47;;;;;;;;;;;12.20;99.90;;;;;;5093507;28;19920;-63
2023/01/05 14:20:48;;;;;;;;;;;12.00;99.90;;;;;;5092851;28;19920;-63
2023/01/05 14:23:34;;;;;;;;;;;11.80;99.90;;;;;;5030048;28;20020;-63
2023/01/05 14:26:03;;;;;;;;;;;11.70;99.90;;;;;;5031020;28;19957;-63
2023/01/05 14:28:43;;;;;;;;;;;11.60;99.90;;;;;;5067491;28;20018;-63
2023/01/05 14:31:31;;;;;;;;;;;11.60;99.90;;;;;;5092507;28;19967;-63
2023/01/05 14:34:02;;;;;;;;;;;11.50;99.90;;;;;;5075684;28;20580;-64
2023/01/05 14:36:31;;;;;;;;;;;11.40;99.90;;;;;;5093097;28;19920;-64
2023/01/05 14:38:59;;;;;;;;;;;11.30;99.90;;;;;;5104922;28;19920;-63
2023/01/05 14:41:28;;;;;;;;;;;11.20;99.90;;;;;;5112525;28;20001;-63
2023/01/05 14:43:58;;;;;;;;;;;11.20;99.90;;;;;;5113958;28;19950;-64
2023/01/05 14:46:27;;;;;;;;;;;11.20;99.90;;;;;;5113964;28;19919;-64
2023/01/05 14:48:59;;;;;;;;;;;11.20;99.90;;;;;;5113676;28;19934;-63
2023/01/05 14:51:28;;;;;;;;;;;11.10;99.90;;;;;;5100545;28;20023;-63
2023/01/05 14:53:57;;;;;;;;;;;11.10;99.90;;;;;;5072386;28;19925;-66
2023/01/05 14:56:25;;;;;;;;;;;11.10;99.90;;;;;;5072820;28;20001;-64
2023/01/05 14:58:56;;;;;;;;;;;11.10;99.90;;;;;;5072553;28;20450;-63
2023/01/05 15:01:27;;;;;;;;;;;11.10;99.90;;;;;;5071727;28;19924;-64
2023/01/05 15:03:57;;;;;;;;;;;11.10;99.90;;;;;;5072954;28;20027;-64
2023/01/05 15:06:26;;;;;;;;;;;11.10;99.90;;;;;;5079254;28;20454;-64
2023/01/05 15:09:09;;;;;;;;;;;11.00;99.90;;;;;;5104112;28;20461;-64
2023/01/05 15:11:43;;;;;;;;;;;11.10;99.90;;;;;;5112139;28;20379;-63
2023/01/05 15:14:33;;;;;;;;;;;11.10;99.90;;;;;;5112875;28;19931;-63
2023/01/05 15:17:19;;;;;;;;;;;11.10;99.90;;;;;;5072041;28;19928;-63